Time;durP1;ratioP1;P1;durP2;ratioP2;P2;SDS_P1;SDS_P2;PMS_P1;PMS_P2;Temp;Humidity;BMP_temperature;BMP_pressure;BME280_temperature;BME280_humidity;BME280_pressure;Samples;Min_cycle;Max_cycle;Signal;HPM_P1;HPM_P2
2022/10/07 00:01:27;;;;;;;7.60;2.10;;;12.20;99.90;;;11.79;100.00;98402.53;5002468;28;20487;-41
2022/10/07 00:03:53;;;;;;;5.20;2.03;;;12.20;99.90;;;11.77;100.00;98402.63;5001419;28;20494;-41
2022/10/07 00:06:21;;;;;;;5.80;2.17;;;12.20;99.90;;;11.77;100.00;98409.66;4998585;28;20041;-41
2022/10/07 00:08:50;;;;;;;4.45;1.65;;;12.20;99.90;;;11.71;100.00;98396.59;4984681;28;20060;-41
2022/10/07 00:11:24;;;;;;;3.67;1.38;;;12.20;99.90;;;11.74;100.00;98407.09;5003188;28;20111;-41
2022/10/07 00:14:00;;;;;;;4.20;1.85;;;12.20;99.90;;;11.71;100.00;98393.97;5008435;28;20390;-41
2022/10/07 00:16:33;;;;;;;6.68;2.00;;;12.20;99.90;;;11.75;100.00;98409.69;4989577;28;20056;-41
2022/10/07 00:19:02;;;;;;;3.05;1.75;;;12.10;99.90;;;11.74;100.00;98400.03;5003422;28;20037;-41
2022/10/07 00:21:31;;;;;;;5.53;1.95;;;12.10;99.90;;;11.73;100.00;98400.94;5005322;28;20755;-41
2022/10/07 00:23:57;;;;;;;8.10;2.42;;;12.20;99.90;;;11.72;100.00;98393.94;5006899;28;22104;-41
2022/10/07 00:26:30;;;;;;;4.05;2.17;;;12.10;99.90;;;11.75;100.00;98399.13;4991755;28;20041;-41
2022/10/07 00:28:56;;;;;;;3.35;1.73;;;12.20;99.90;;;11.79;100.00;98399.91;5001586;28;20041;-41
2022/10/07 00:31:34;;;;;;;7.90;1.90;;;12.20;99.90;;;11.82;100.00;98397.19;5002339;28;20059;-41
2022/10/07 00:34:01;;;;;;;8.07;2.20;;;12.20;99.90;;;11.80;100.00;98386.66;5005250;28;20033;-41
2022/10/07 00:36:33;;;;;;;5.25;2.03;;;12.20;99.90;;;11.81;100.00;98383.13;5006251;28;20034;-41
2022/10/07 00:39:06;;;;;;;6.15;2.17;;;12.20;99.90;;;11.82;100.00;98374.25;5005675;28;20021;-41
2022/10/07 00:41:36;;;;;;;4.82;2.10;;;12.20;99.90;;;11.85;100.00;98375.97;5003277;28;20507;-41
2022/10/07 00:44:36;;;;;;;6.25;2.50;;;12.30;99.90;;;11.87;100.00;98368.00;5006362;28;22969;-41
2022/10/07 00:47:29;;;;;;;3.50;2.15;;;12.30;99.90;;;11.89;100.00;98363.53;5003099;28;20037;-41
2022/10/07 00:50:06;;;;;;;4.07;2.00;;;12.30;99.90;;;11.92;100.00;98358.22;4989196;28;20029;-41
2022/10/07 00:52:38;;;;;;;6.75;2.47;;;12.30;99.90;;;11.94;100.00;98357.25;4982925;28;20061;-41
2022/10/07 00:55:09;;;;;;;3.93;2.20;;;12.30;99.90;;;11.98;100.00;98355.38;4999994;28;20029;-41
2022/10/07 00:57:37;;;;;;;4.22;2.00;;;12.30;99.90;;;12.00;100.00;98358.84;4999393;28;20773;-41
2022/10/07 01:00:05;;;;;;;6.05;2.50;;;12.40;99.90;;;12.01;100.00;98352.66;4980309;28;20060;-41
2022/10/07 01:02:32;;;;;;;4.60;2.20;;;12.40;99.90;;;12.00;100.00;98348.28;4983079;28;20669;-41
2022/10/07 01:05:00;;;;;;;5.55;2.72;;;12.40;99.90;;;12.03;100.00;98346.41;4997006;28;20041;-41
2022/10/07 01:07:27;;;;;;;6.28;2.70;;;12.40;99.90;;;11.98;100.00;98344.81;4980103;28;20041;-41
2022/10/07 01:09:55;;;;;;;5.00;2.60;;;12.40;99.90;;;11.96;100.00;98342.22;4984012;28;20761;-41
2022/10/07 01:13:13;;;;;;;5.78;2.28;;;12.40;99.90;;;11.99;100.00;98349.22;4998500;28;20292;-41
2022/10/07 01:15:55;;;;;;;9.05;2.35;;;12.40;99.90;;;12.01;100.00;98350.88;4983149;28;20045;-41
2022/10/07 01:18:35;;;;;;;7.90;2.67;;;12.40;99.90;;;11.96;100.00;98339.56;4998320;28;20037;-41
2022/10/07 01:21:15;;;;;;;8.50;2.22;;;12.40;99.90;;;11.95;100.00;98335.22;4982361;28;20029;-41
2022/10/07 01:23:50;;;;;;;4.57;1.88;;;12.40;99.90;;;11.94;100.00;98336.09;4987844;28;20104;-41
2022/10/07 01:26:53;;;;;;;3.25;1.60;;;12.30;99.90;;;11.94;100.00;98335.25;4992980;28;21496;-41
2022/10/07 01:29:28;;;;;;;4.57;1.73;;;12.30;99.90;;;11.92;100.00;98324.72;4982892;28;20036;-41
2022/10/07 01:32:03;;;;;;;9.23;2.10;;;12.30;99.90;;;11.78;100.00;98305.69;5001031;28;20033;-41
2022/10/07 01:34:31;;;;;;;4.20;2.05;;;12.30;99.90;;;11.87;100.00;98318.66;4983596;28;20033;-41
2022/10/07 01:36:59;;;;;;;4.18;2.03;;;12.30;99.90;;;11.89;100.00;98326.53;4978791;28;20053;-41
2022/10/07 01:39:33;;;;;;;2.40;1.73;;;12.30;99.90;;;11.85;100.00;98315.19;4995698;28;20168;-41
2022/10/07 01:41:59;;;;;;;4.40;2.10;;;12.30;99.90;;;11.88;100.00;98317.75;4979175;28;20687;-41
2022/10/07 01:44:28;;;;;;;3.72;2.15;;;12.30;99.90;;;11.89;100.00;98315.97;4999748;28;20033;-41
2022/10/07 01:46:54;;;;;;;5.47;2.47;;;12.30;99.90;;;11.90;100.00;98312.38;5005226;28;20140;-41
2022/10/07 01:49:21;;;;;;;4.65;2.70;;;12.30;99.90;;;11.88;100.00;98309.81;4981618;28;20033;-42
2022/10/07 01:52:23;;;;;;;4.10;2.30;;;12.30;99.90;;;11.91;100.00;98299.16;4995932;28;20027;-41
2022/10/07 01:55:17;;;;;;;5.60;2.53;;;12.30;99.90;;;11.93;100.00;98294.69;4997158;28;20244;-40
2022/10/07 01:58:44;;;;;;;10.32;2.88;;;12.30;99.90;;;11.94;100.00;98292.94;4986507;28;20120;-41
2022/10/07 02:01:52;;;;;;;4.68;2.28;;;12.30;99.90;;;11.94;100.00;98290.31;4998247;28;20124;-41
2022/10/07 02:04:46;;;;;;;5.35;2.45;;;12.30;99.90;;;11.92;100.00;98284.19;4904531;28;21077;-41
2022/10/07 02:07:36;;;;;;;4.63;2.50;;;12.30;99.90;;;11.94;100.00;98295.59;4982421;28;20103;-41
2022/10/07 02:10:34;;;;;;;4.30;1.95;;;12.30;99.90;;;11.94;100.00;98287.66;4982071;28;20025;-41
2022/10/07 02:13:22;;;;;;;3.60;1.90;;;12.30;99.90;;;11.95;100.00;98290.25;5001241;28;20033;-41
2022/10/07 02:16:07;;;;;;;6.50;2.30;;;12.30;99.90;;;11.94;100.00;98285.03;4983337;28;20025;-41
2022/10/07 02:18:36;;;;;;;7.38;2.80;;;12.30;99.90;;;11.94;100.00;98277.94;5007670;28;20029;-41
2022/10/07 02:21:05;;;;;;;3.47;2.20;;;12.30;99.90;;;11.81;100.00;98260.69;4983221;28;20115;-41
2022/10/07 02:23:33;;;;;;;4.05;1.77;;;12.30;99.90;;;11.93;100.00;98278.84;4979663;28;20639;-41
2022/10/07 02:26:00;;;;;;;4.38;2.03;;;12.30;99.90;;;11.93;100.00;98280.63;5005483;28;20025;-41
2022/10/07 02:28:28;;;;;;;3.75;2.10;;;12.30;99.90;;;11.93;100.00;98275.34;5004428;28;20094;-41
2022/10/07 02:30:59;;;;;;;4.57;1.90;;;12.30;99.90;;;11.91;100.00;98272.75;4988712;28;20471;-41
2022/10/07 02:33:28;;;;;;;3.70;1.95;;;12.30;99.90;;;11.88;100.00;98275.47;4984710;28;20045;-41
2022/10/07 02:35:58;;;;;;;3.20;1.70;;;12.30;99.90;;;11.91;100.00;98266.59;4985773;28;20033;-42
2022/10/07 02:38:25;;;;;;;6.70;2.10;;;12.30;99.90;;;11.90;100.00;98264.81;4987219;28;20193;-42
2022/10/07 02:41:06;;;;;;;3.53;1.80;;;12.30;99.90;;;11.84;100.00;98250.88;5001730;28;20029;-41
2022/10/07 02:43:48;;;;;;;7.15;2.38;;;12.30;99.90;;;11.89;100.00;98244.59;4985889;28;20037;-41
2022/10/07 02:46:41;;;;;;;6.47;2.50;;;12.20;99.90;;;11.87;100.00;98254.34;4981839;28;20029;-42
2022/10/07 02:49:11;;;;;;;4.60;2.50;;;12.30;99.90;;;11.88;100.00;98251.66;4985510;28;20682;-42
2022/10/07 02:51:58;;;;;;;7.03;2.80;;;12.30;99.90;;;11.90;100.00;98255.16;4984612;28;20029;-42
2022/10/07 02:54:31;;;;;;;8.45;2.88;;;12.30;99.90;;;11.90;100.00;98256.88;4978275;28;20390;-41
2022/10/07 02:56:59;;;;;;;4.63;1.98;;;12.30;99.90;;;11.89;100.00;98249.88;4987566;28;20037;-41
2022/10/07 02:59:26;;;;;;;8.30;2.40;;;12.30;99.90;;;11.89;100.00;98248.09;5004093;28;20066;-42
2022/10/07 03:01:54;;;;;;;5.45;2.90;;;12.30;99.90;;;11.91;100.00;98242.81;4982863;28;20095;-42
2022/10/07 03:04:21;;;;;;;5.13;2.33;;;12.30;99.90;;;11.91;100.00;98241.00;4976403;28;20344;-41
2022/10/07 03:06:48;;;;;;;6.82;2.30;;;12.30;99.90;;;11.93;100.00;98239.19;4982630;28;20513;-41
2022/10/07 03:09:14;;;;;;;7.35;2.65;;;12.30;99.90;;;11.93;100.00;98239.19;5001447;28;20044;-41
2022/10/07 03:11:40;;;;;;;6.07;2.25;;;12.30;99.90;;;11.89;100.00;98229.59;4999808;28;20029;-41
2022/10/07 03:14:05;;;;;;;3.80;2.28;;;12.30;99.90;;;11.93;100.00;98235.69;4983728;28;20025;-41
2022/10/07 03:16:31;;;;;;;4.53;2.40;;;12.30;99.90;;;11.93;100.00;98233.91;5029132;23;20675;-43
2022/10/07 03:19:00;;;;;;;7.25;2.22;;;12.30;99.90;;;11.92;100.00;98232.19;5022731;28;20037;-43
2022/10/07 03:21:26;;;;;;;6.53;2.08;;;12.30;99.90;;;11.94;100.00;98232.16;5024324;28;20603;-43
2022/10/07 03:23:52;;;;;;;6.50;2.60;;;12.30;99.90;;;11.94;100.00;98232.16;5014815;28;20393;-42
2022/10/07 03:26:18;;;;;;;5.25;2.47;;;12.30;99.90;;;11.94;100.00;98224.22;5008851;28;20199;-43
2022/10/07 03:28:45;;;;;;;4.65;2.17;;;12.30;99.90;;;11.96;100.00;98227.69;5008686;28;20754;-43
2022/10/07 03:31:14;;;;;;;3.92;2.38;;;12.30;99.90;;;11.96;100.00;98212.69;5000842;28;20084;-44
2022/10/07 03:33:40;;;;;;;3.78;2.13;;;12.30;99.90;;;11.95;100.00;98218.88;5007844;28;20030;-44
2022/10/07 03:36:07;;;;;;;9.15;2.45;;;12.40;99.90;;;11.98;100.00;98218.78;5001582;28;20029;-45
2022/10/07 03:38:34;;;;;;;6.32;2.00;;;12.40;99.90;;;11.99;100.00;98209.09;5000783;28;20499;-43
2022/10/07 03:41:06;;;;;;;3.35;2.00;;;12.30;99.90;;;12.00;100.00;98209.03;5004916;28;22751;-45
2022/10/07 03:43:32;;;;;;;4.57;2.20;;;12.40;99.90;;;11.86;100.00;98190.03;5001570;28;20751;-46
2022/10/07 03:46:01;;;;;;;6.40;2.92;;;12.40;99.90;;;12.04;100.00;98220.38;5009707;28;20499;-44
2022/10/07 03:48:30;;;;;;;4.72;2.30;;;12.40;99.90;;;12.03;100.00;98218.66;5000315;28;22016;-43
2022/10/07 03:50:59;;;;;;;5.50;2.30;;;12.40;99.90;;;12.00;100.00;98206.38;5003833;28;20044;-43
2022/10/07 03:53:29;;;;;;;4.45;2.38;;;12.40;99.90;;;12.06;100.00;98212.41;4998570;28;21000;-44
2022/10/07 03:55:56;;;;;;;4.68;2.30;;;12.50;99.90;;;12.02;100.00;98204.56;5011267;28;20056;-45
2022/10/07 03:58:22;;;;;;;7.43;2.60;;;12.40;99.90;;;12.03;100.00;98201.00;5009607;28;20393;-43
2022/10/07 04:00:48;;;;;;;3.75;2.30;;;12.40;99.90;;;11.97;100.00;98198.56;5009221;28;20036;-46
2022/10/07 04:03:14;;;;;;;5.40;2.20;;;12.40;99.90;;;12.07;100.00;98198.28;4994971;28;20044;-43
2022/10/07 04:05:41;;;;;;;6.55;2.80;;;12.40;99.90;;;12.07;100.00;98203.56;4995921;28;20655;-43
2022/10/07 04:08:08;;;;;;;5.45;2.47;;;12.40;99.90;;;12.06;100.00;98194.78;4994128;28;20038;-42
2022/10/07 04:10:34;;;;;;;4.68;2.38;;;12.40;99.90;;;12.06;100.00;98200.06;5008225;28;20040;-44
2022/10/07 04:13:00;;;;;;;5.10;2.60;;;12.40;99.90;;;12.05;100.00;98186.88;5002269;28;20038;-43
2022/10/07 04:15:26;;;;;;;6.05;2.25;;;12.50;99.90;;;12.02;100.00;98186.06;5011886;28;20734;-42
2022/10/07 04:17:58;;;;;;;4.00;2.50;;;12.40;99.90;;;12.07;100.00;98188.56;5006289;28;20041;-43
2022/10/07 04:20:24;;;;;;;5.25;2.40;;;12.40;99.90;;;12.07;100.00;98187.69;5010694;28;20037;-41
2022/10/07 04:22:50;;;;;;;4.57;2.40;;;12.40;99.90;;;12.02;100.00;98180.78;5009760;28;20041;-43
2022/10/07 04:25:34;;;;;;;4.53;2.50;;;12.40;99.90;;;12.06;100.00;98188.59;5009674;28;20415;-43
2022/10/07 04:28:22;;;;;;;3.20;2.17;;;12.50;99.90;;;12.03;100.00;98182.50;5014604;28;20024;-43
2022/10/07 04:30:50;;;;;;;4.55;2.75;;;12.40;99.90;;;12.03;100.00;98179.84;5001422;28;20033;-44
2022/10/07 04:33:18;;;;;;;4.88;2.50;;;12.40;99.90;;;12.06;100.00;98183.31;5008088;28;20029;-42
2022/10/07 04:35:44;;;;;;;4.18;2.28;;;12.50;99.90;;;12.06;100.00;98178.03;5001031;28;20088;-43
2022/10/07 04:38:12;;;;;;;4.30;2.60;;;12.50;99.90;;;12.06;100.00;98172.75;5004500;28;20092;-44
2022/10/07 04:40:44;;;;;;;6.30;2.90;;;12.50;99.90;;;12.06;100.00;98173.63;5002903;28;20055;-44
2022/10/07 04:43:18;;;;;;;7.55;2.70;;;12.50;99.90;;;12.07;100.00;98167.41;5007660;28;20391;-43
2022/10/07 04:45:53;;;;;;;6.03;2.70;;;12.50;99.90;;;12.07;100.00;98170.06;5005248;28;20516;-43
2022/10/07 04:48:22;;;;;;;4.60;2.60;;;12.40;99.90;;;12.07;100.00;98166.56;5003415;28;20036;-46
2022/10/07 04:50:50;;;;;;;4.78;2.50;;;12.40;99.90;;;12.02;100.00;98154.34;4996683;28;20064;-46
2022/10/07 04:53:16;;;;;;;5.57;2.50;;;12.40;99.90;;;12.05;100.00;98163.94;5008260;28;21177;-46
2022/10/07 04:55:46;;;;;;;7.13;2.30;;;12.40;99.90;;;12.05;100.00;98157.81;5010204;28;20096;-44
2022/10/07 04:58:15;;;;;;;5.32;2.08;;;12.50;99.90;;;12.00;100.00;98161.44;5019947;28;20477;-43
2022/10/07 05:00:43;;;;;;;5.35;2.70;;;12.40;99.90;;;12.01;100.00;98157.03;5013514;28;20030;-44
2022/10/07 05:03:11;;;;;;;3.95;2.40;;;12.40;99.90;;;12.01;100.00;98165.81;5010852;28;20033;-45
2022/10/07 05:05:41;;;;;;;4.32;2.22;;;12.40;99.90;;;11.98;100.00;98157.97;5009143;28;20606;-48
2022/10/07 05:08:07;;;;;;;8.02;2.25;;;12.40;99.90;;;11.96;100.00;98151.00;5008600;28;20045;-45
2022/10/07 05:10:38;;;;;;;7.57;2.38;;;12.40;99.90;;;11.92;100.00;98152.88;5010355;28;20060;-48
2022/10/07 05:13:06;;;;;;;3.50;2.30;;;12.30;99.90;;;11.91;100.00;98155.56;5009822;28;20034;-46
2022/10/07 05:15:32;;;;;;;9.35;2.58;;;12.30;99.90;;;11.90;100.00;98156.44;4997721;28;20497;-44
2022/10/07 05:17:58;;;;;;;7.13;2.65;;;12.30;99.90;;;11.87;100.00;98151.25;5009335;28;20029;-46
2022/10/07 05:20:24;;;;;;;5.72;2.40;;;12.30;99.90;;;11.86;100.00;98153.03;5007870;28;20042;-43
2022/10/07 05:22:50;;;;;;;4.40;2.50;;;12.30;99.90;;;11.86;100.00;98155.66;5012875;28;20037;-39
2022/10/07 05:25:15;;;;;;;7.10;2.90;;;12.30;99.90;;;11.87;100.00;98149.47;5015255;28;20102;-42
2022/10/07 05:27:41;;;;;;;4.00;2.38;;;12.30;99.90;;;11.90;100.00;98160.00;5004787;28;20070;-45
2022/10/07 05:30:08;;;;;;;7.03;2.38;;;12.30;99.90;;;11.90;100.00;98160.00;5021805;28;20030;-45
2022/10/07 05:32:34;;;;;;;5.07;2.47;;;12.30;99.90;;;11.92;100.00;98155.53;5002927;28;20091;-43
2022/10/07 05:35:00;;;;;;;3.55;2.13;;;12.30;99.90;;;11.93;100.00;98157.25;5007054;28;20037;-45
2022/10/07 05:37:27;;;;;;;5.15;2.60;;;12.30;99.90;;;11.80;100.00;98124.16;5000727;28;20037;-46
2022/10/07 05:39:52;;;;;;;4.38;2.20;;;12.30;99.90;;;11.97;100.00;98150.09;5006099;28;20041;-49
2022/10/07 05:42:18;;;;;;;4.60;2.55;;;12.30;99.90;;;11.98;100.00;98144.75;5007222;28;20044;-46
2022/10/07 05:44:45;;;;;;;6.60;2.50;;;12.30;99.90;;;11.99;100.00;98149.16;5009962;28;20076;-48
2022/10/07 05:47:11;;;;;;;3.63;2.20;;;12.40;99.90;;;12.01;100.00;98146.47;5006548;28;20170;-45
2022/10/07 05:49:36;;;;;;;5.53;2.70;;;12.40;99.90;;;11.88;100.00;98124.78;5001517;28;20033;-45
2022/10/07 05:52:03;;;;;;;6.13;2.40;;;12.40;99.90;;;12.03;100.00;98142.84;5010432;28;20052;-48
2022/10/07 05:54:29;;;;;;;6.32;2.25;;;12.40;99.90;;;11.98;100.00;98131.53;5009240;28;20482;-47
2022/10/07 05:56:55;;;;;;;5.50;2.40;;;12.40;99.90;;;12.03;100.00;98140.19;5010045;28;20044;-48
2022/10/07 05:59:21;;;;;;;7.85;2.78;;;12.40;99.90;;;12.06;100.00;98141.00;5004134;28;20049;-47
2022/10/07 06:01:46;;;;;;;7.20;2.53;;;12.40;99.90;;;12.10;100.00;98145.31;5004180;28;20052;-47
2022/10/07 06:04:12;;;;;;;5.88;2.45;;;12.40;99.90;;;12.15;100.00;98144.25;5010603;28;20033;-46
2022/10/07 06:06:38;;;;;;;5.25;2.25;;;12.50;99.90;;;12.21;100.00;98144.03;5004240;28;20045;-47
2022/10/07 06:14:33;;;;;;;6.43;2.80;;;12.70;99.90;;;12.47;100.00;98134.44;5014680;28;20044;-47
2022/10/07 06:16:59;;;;;;;7.93;3.00;;;12.80;99.90;;;12.56;100.00;98133.22;5027891;28;20037;-48
2022/10/07 06:19:25;;;;;;;8.20;2.80;;;12.90;99.90;;;12.63;100.00;98129.47;5007648;28;20126;-46
2022/10/07 06:21:51;;;;;;;5.78;2.83;;;13.00;99.90;;;12.71;100.00;98132.72;5008422;28;20383;-48
2022/10/07 06:24:16;;;;;;;8.50;2.95;;;13.10;99.90;;;12.80;100.00;98132.41;5016528;28;20024;-47
2022/10/07 06:26:42;;;;;;;5.72;2.70;;;13.10;99.90;;;12.88;100.00;98129.50;5018357;28;20033;-44
2022/10/07 06:29:08;;;;;;;4.25;2.40;;;13.30;99.90;;;13.02;100.00;98138.75;5013745;28;20033;-48
2022/10/07 06:31:34;;;;;;;7.72;3.50;;;13.40;99.90;;;13.12;100.00;98130.44;5006429;28;20036;-45
2022/10/07 06:34:00;;;;;;;5.18;3.00;;;13.40;99.90;;;13.23;100.00;98127.41;5016620;28;20029;-49
2022/10/07 06:36:25;;;;;;;7.95;3.00;;;13.50;99.90;;;13.36;100.00;98138.44;4998511;28;20030;-46
2022/10/07 06:38:54;;;;;;;6.47;2.80;;;13.70;99.90;;;13.45;100.00;98140.75;5007696;28;20021;-46
2022/10/07 06:41:21;;;;;;;6.95;3.10;;;13.80;99.90;;;13.53;100.00;98137.81;5023548;28;20029;-47
2022/10/07 06:43:47;;;;;;;6.85;2.90;;;13.80;99.90;;;13.62;100.00;98134.84;5016643;28;20503;-47
2022/10/07 06:46:18;;;;;;;5.25;3.08;;;13.90;99.90;;;13.69;100.00;98141.66;5012354;28;20498;-44
2022/10/07 06:48:45;;;;;;;7.45;3.20;;;14.00;99.90;;;13.77;100.00;98136.03;5014445;28;20036;-46
2022/10/07 06:51:18;;;;;;;11.18;3.72;;;14.10;99.90;;;13.84;100.00;98131.38;5004671;28;20033;-45
2022/10/07 06:53:44;;;;;;;5.55;3.28;;;14.20;99.90;;;13.86;100.00;98129.53;5009896;28;20040;-47
2022/10/07 06:56:13;;;;;;;9.50;3.35;;;14.20;99.90;;;13.91;100.00;98125.75;5007958;28;20029;-45
2022/10/07 06:58:39;;;;;;;7.68;3.67;;;14.30;99.90;;;13.98;100.00;98138.78;5003285;28;20102;-48
2022/10/07 07:01:05;;;;;;;6.60;3.25;;;14.30;99.90;;;14.06;100.00;98139.34;5000742;28;20428;-48
2022/10/07 07:03:31;;;;;;;6.30;2.90;;;14.40;99.90;;;14.18;100.00;98136.22;5001495;28;20127;-45
2022/10/07 07:05:57;;;;;;;10.50;3.30;;;14.50;99.90;;;14.26;100.00;98136.75;5004579;28;20033;-45
2022/10/07 07:08:31;;;;;;;5.57;3.10;;;14.60;99.90;;;14.42;100.00;98139.66;5002809;28;20030;-45
2022/10/07 07:13:54;;;;;;;7.65;3.50;;;14.90;99.90;;;14.60;100.00;98139.88;4993447;28;20036;-48
2022/10/07 07:16:20;;;;;;;7.32;3.25;;;15.00;99.90;;;14.66;100.00;98137.84;4994790;28;20053;-45
2022/10/07 07:18:51;;;;;;;7.03;3.60;;;15.00;99.90;;;14.69;100.00;98136.84;4998103;28;20102;-46
2022/10/07 07:21:17;;;;;;;7.75;3.55;;;15.00;99.90;;;14.72;100.00;98135.84;4995942;28;20064;-46
2022/10/07 07:23:43;;;;;;;7.53;3.55;;;15.10;99.90;;;14.73;100.00;98137.56;4996589;28;20116;-49
2022/10/07 07:26:08;;;;;;;7.97;3.90;;;15.10;99.90;;;14.74;100.00;98134.84;5002048;28;20040;-45
2022/10/07 07:28:34;;;;;;;10.80;3.67;;;15.10;99.90;;;14.77;100.00;98129.44;5004014;28;20173;-48
2022/10/07 07:31:08;;;;;;;6.28;3.13;;;15.10;99.90;;;14.79;100.00;98134.66;5001131;28;20106;-49
2022/10/07 07:33:37;;;;;;;6.85;3.65;;;15.10;99.90;;;14.81;100.00;98130.16;5002505;28;20092;-46
2022/10/07 07:36:15;;;;;;;5.57;3.03;;;15.20;99.90;;;14.84;100.00;98135.31;5002724;28;20450;-49
2022/10/07 07:38:51;;;;;;;6.15;3.83;;;15.20;99.90;;;14.85;100.00;98132.59;5004432;28;20049;-47
2022/10/07 07:41:21;;;;;;;7.90;4.05;;;15.20;99.90;;;14.91;100.00;98127.97;5011355;28;20251;-45
2022/10/07 07:43:50;;;;;;;8.95;4.60;;;15.30;99.90;;;14.95;100.00;98135.75;5008526;28;20052;-48
2022/10/07 07:46:17;;;;;;;7.97;3.90;;;15.30;99.90;;;15.03;100.00;98128.28;5012630;28;20601;-45
2022/10/07 07:48:43;;;;;;;8.52;3.88;;;15.40;99.90;;;15.11;100.00;98125.31;5008009;28;20037;-46
2022/10/07 07:51:09;;;;;;;7.20;3.58;;;15.50;99.90;;;15.23;100.00;98130.06;5002239;28;20037;-47
2022/10/07 07:53:36;;;;;;;9.40;4.20;;;15.60;99.90;;;15.28;100.00;98122.75;5025585;28;20247;-48
2022/10/07 07:56:02;;;;;;;7.63;4.20;;;15.60;99.90;;;15.35;100.00;98123.34;5003042;28;20022;-47
2022/10/07 07:58:28;;;;;;;10.90;4.25;;;15.70;99.90;;;15.43;100.00;98120.34;5005154;28;20089;-46
2022/10/07 08:01:12;;;;;;;5.32;2.83;;;15.80;99.90;;;15.59;100.00;98112.53;5011063;28;20049;-42
2022/10/07 08:03:42;;;;;;;6.28;3.85;;;15.90;99.90;;;15.71;100.00;98119.09;5000483;28;20116;-49
2022/10/07 08:06:10;;;;;;;7.18;3.22;;;16.10;99.90;;;15.73;100.00;98120.75;5025307;28;20034;-48
2022/10/07 08:08:36;;;;;;;7.93;3.17;;;16.20;99.90;;;15.80;100.00;98122.22;5008603;28;20056;-49
2022/10/07 08:11:09;;;;;;;5.25;2.97;;;16.20;99.90;;;15.93;100.00;98122.50;5015623;28;20056;-46
2022/10/07 08:13:38;;;;;;;5.68;3.35;;;16.30;99.90;;;16.05;100.00;98114.91;5014601;28;20676;-46
2022/10/07 08:16:04;;;;;;;4.65;2.70;;;16.40;99.90;;;16.21;100.00;98122.06;5013897;28;20036;-45
2022/10/07 08:18:33;;;;;;;6.53;3.05;;;16.50;99.90;;;16.30;100.00;98115.44;5013744;28;20033;-47
2022/10/07 08:21:03;;;;;;;3.53;2.58;;;16.60;99.90;;;16.39;100.00;98114.13;5010529;28;20029;-49
2022/10/07 08:23:29;;;;;;;4.85;3.00;;;16.70;99.90;;;16.44;100.00;98113.88;5006412;28;20044;-45
2022/10/07 08:25:57;;;;;;;3.50;1.95;;;16.80;99.90;;;16.56;100.00;98113.28;5005483;28;20034;-47
2022/10/07 08:28:23;;;;;;;6.28;2.60;;;16.90;99.90;;;16.59;100.00;98106.00;5003637;28;20037;-49
2022/10/07 08:30:54;;;;;;;5.25;2.80;;;17.00;99.90;;;16.64;100.00;98112.91;5004686;28;20474;-49
2022/10/07 08:33:21;;;;;;;7.97;2.80;;;17.00;99.90;;;16.72;100.00;98108.88;5009976;28;20109;-48
2022/10/07 08:35:58;;;;;;;5.97;2.65;;;17.10;99.90;;;16.78;100.00;98113.94;5009259;28;20392;-47
2022/10/07 08:38:27;;;;;;;8.20;2.65;;;17.10;99.90;;;16.80;99.10;98105.88;5014362;28;20523;-49
2022/10/07 08:40:53;;;;;;;5.50;2.65;;;17.10;99.90;;;16.90;99.69;98103.59;5007228;28;20041;-46
2022/10/07 08:43:22;;;;;;;7.05;2.80;;;17.20;99.90;;;16.90;99.71;98103.59;5009971;28;20111;-45
2022/10/07 08:45:51;;;;;;;4.60;2.60;;;17.20;99.90;;;16.94;98.89;98099.84;5000743;28;20053;-47
2022/10/07 08:48:24;;;;;;;6.63;2.58;;;17.20;99.90;;;16.97;98.81;98100.53;4999537;28;20066;-47
2022/10/07 08:51:24;;;;;;;3.75;2.50;;;17.30;99.90;;;17.05;99.13;98092.16;5005878;28;20450;-47
2022/10/07 08:53:55;;;;;;;5.75;2.60;;;17.30;99.90;;;17.17;98.78;98093.31;5006725;28;20545;-46
2022/10/07 08:56:25;;;;;;;3.97;2.45;;;17.40;99.90;;;17.22;98.82;98091.28;5006694;28;20033;-46
2022/10/07 08:59:09;;;;;;;4.20;2.30;;;17.50;99.90;;;17.25;96.33;98093.78;5009621;28;20033;-46
2022/10/07 09:02:16;;;;;;;5.88;2.72;;;17.60;99.90;;;17.27;98.46;98081.22;5011682;28;20042;-46
2022/10/07 09:05:25;;;;;;;6.50;2.58;;;17.60;99.90;;;17.33;96.61;98083.56;5020204;28;20124;-45
2022/10/07 09:07:56;;;;;;;8.50;2.97;;;17.60;99.90;;;17.20;94.51;98092.31;5009132;28;20643;-47
2022/10/07 09:10:35;;;;;;;7.70;2.95;;;17.60;99.90;;;17.20;96.49;98079.84;5026568;28;20029;-43
2022/10/07 09:13:04;;;;;;;6.15;2.95;;;17.60;99.90;;;17.26;96.34;98074.16;5008020;28;20057;-44
2022/10/07 09:15:40;;;;;;;8.40;3.05;;;17.60;99.90;;;17.17;95.03;98080.88;5017459;28;20037;-48
2022/10/07 09:18:38;;;;;;;5.47;2.85;;;17.60;99.90;;;17.22;96.12;98077.94;5042398;23;20045;-51
2022/10/07 09:21:32;;;;;;;6.05;2.75;;;17.50;99.90;;;17.21;94.69;98070.03;5017157;28;20053;-52
2022/10/07 09:24:27;;;;;;;9.18;2.92;;;17.60;99.90;;;17.26;95.52;98065.31;5028748;28;20037;-49
2022/10/07 09:26:57;;;;;;;2.92;2.33;;;17.60;99.90;;;17.30;97.84;98065.09;5019635;28;20556;-50
2022/10/07 09:29:26;;;;;;;3.05;1.92;;;17.60;99.90;;;17.44;97.58;98069.66;5007861;28;20099;-52
2022/10/07 09:31:53;;;;;;;6.90;3.13;;;17.70;99.90;;;17.48;94.83;98062.34;5021539;28;20030;-50
2022/10/07 09:34:23;;;;;;;6.10;2.67;;;17.80;99.90;;;17.47;93.89;98058.81;5002939;28;20128;-48
2022/10/07 09:37:19;;;;;;;8.88;3.25;;;17.80;99.90;;;17.46;96.20;98056.22;5002594;28;20037;-51
2022/10/07 09:39:49;;;;;;;5.97;2.40;;;17.80;99.90;;;17.47;97.72;98049.97;5003694;28;20048;-49
2022/10/07 09:42:44;;;;;;;6.13;2.95;;;17.80;99.90;;;17.51;96.37;98047.03;5009853;28;20129;-51
2022/10/07 09:45:32;;;;;;;5.20;3.08;;;17.80;99.90;;;17.55;95.85;98048.59;5006726;28;20063;-52
2022/10/07 09:48:07;;;;;;;9.63;2.78;;;17.80;99.90;;;17.58;96.40;98046.72;5007878;28;20033;-51
2022/10/07 09:50:35;;;;;;;5.78;2.97;;;17.80;99.90;;;17.59;95.49;98045.78;5001060;28;20084;-52
2022/10/07 09:53:03;;;;;;;7.35;3.45;;;17.90;99.90;;;17.61;94.48;98047.41;5009334;28;20037;-48
2022/10/07 09:55:40;;;;;;;7.32;3.75;;;17.90;99.90;;;17.64;93.82;98044.59;5007545;28;20660;-50
2022/10/07 09:58:30;;;;;;;6.28;3.60;;;17.90;99.90;;;17.64;94.23;98041.91;5009256;28;20037;-51
2022/10/07 10:01:01;;;;;;;8.57;3.33;;;17.90;99.90;;;17.67;95.87;98040.88;4998552;28;20044;-51
2022/10/07 10:03:33;;;;;;;4.60;3.30;;;18.00;99.90;;;17.68;94.67;98035.44;5016594;28;20072;-52
2022/10/07 10:06:08;;;;;;;7.90;3.53;;;18.00;99.90;;;17.74;93.63;98047.59;5009990;28;20148;-51
2022/10/07 10:08:38;;;;;;;8.48;4.10;;;18.00;99.90;;;17.73;93.23;98046.72;5003121;28;20053;-48
2022/10/07 10:11:26;;;;;;;7.53;4.22;;;18.00;99.90;;;17.69;94.52;98034.53;5005541;28;20112;-52
2022/10/07 10:13:53;;;;;;;5.82;3.60;;;18.00;99.90;;;17.68;94.48;98037.25;4990851;28;20030;-53
2022/10/07 10:16:24;;;;;;;6.22;3.60;;;18.00;99.90;;;17.70;95.11;98041.56;5011349;28;20115;-49
2022/10/07 10:19:20;;;;;;;5.85;3.42;;;18.10;99.90;;;17.77;94.10;98033.22;5009988;28;20029;-49
2022/10/07 10:21:52;;;;;;;7.35;3.58;;;18.10;99.90;;;17.78;92.87;98029.59;5001875;28;20034;-51
2022/10/07 10:26:24;;;;;;;6.00;3.93;;;18.10;99.90;;;17.77;94.11;98025.22;5004813;28;20052;-50
2022/10/07 10:27:25;;;;;;;4.88;3.17;;;18.10;99.90;;;17.83;93.78;98015.03;5002011;28;20110;-51
2022/10/07 10:30:00;;;;;;;9.38;3.20;;;18.10;99.90;;;17.87;93.86;98016.66;5005582;28;20506;-50
2022/10/07 10:32:35;;;;;;;5.28;3.30;;;18.20;99.90;;;17.89;92.81;98006.75;4999469;28;20075;-51
2022/10/07 10:35:27;;;;;;;4.90;3.10;;;18.20;99.90;;;17.92;93.48;98006.53;5002156;28;20591;-49
2022/10/07 10:37:58;;;;;;;4.25;3.00;;;18.20;99.90;;;17.97;93.81;98002.78;5003145;28;20045;-50
2022/10/07 10:40:46;;;;;;;5.30;2.97;;;18.30;99.90;;;17.97;93.20;97998.28;5001735;28;20137;-51
2022/10/07 10:43:24;;;;;;;6.47;3.60;;;18.30;99.90;;;18.04;93.93;98005.00;4995914;28;20470;-49